Main page
METAR-TAF:

METAR-TAF

Airports :

Katima Mulilo Airport

Katima Mulilo, Namibia

latitude: 17-38-04S, longitude: 024-10-36E, elevation: 985 m

Current weather observation

The report was made 1 hour and 12 minutes ago, at 23:00 UTC
Calm wind
Temperature 9°C
Humidity 71%
Pressure 1024 hPa

METAR: FYKM 232300Z AUTO 00000KT //// // ////// 09/04 Q1024

Time: 02:12 (00:12 UTC)

Forecast

The report was made 7 hours and 12 minutes ago, at 17:00 UTC
Forecast valid from 23 at 18 UTC to 24 at 03 UTC
Wind 4 kt from the East
Visibility 10 km or more
no clouds below 1500 m and no cumulonimbus

TAF: FYKM 231700Z 2318/2403 10004KT CAVOK

Weather observations and forecasts of more than 4000 airports (METAR and TAF reports).

The available stations are represented by yellow and red dots on the map.

Hover mouse over dot to see the name of the station.

Then click to see weather observations and forecasts.

To change the map : click on the green buttons with a black cross to zoom in, on the green button with a dash to zoom out, or on the green arrows for adjacent maps.


METAR-TAF: